createdAt,value
2022-07-26T00:02:18.052Z,99881.47
2022-07-26T00:08:11.997Z,99891.94
2022-07-26T00:13:45.730Z,99886.78
2022-07-26T00:24:35.297Z,99886.84
2022-07-26T00:29:39.920Z,99887.88
2022-07-26T00:34:45.837Z,99893.22
2022-07-26T00:39:57.028Z,99895.66
2022-07-26T00:45:06.281Z,99907.19
2022-07-26T00:50:26.486Z,99909.63
2022-07-26T00:55:35.416Z,99910.66
2022-07-26T01:00:42.318Z,99922.97
2022-07-26T01:05:57.615Z,99932.00
2022-07-26T01:11:09.255Z,99915.19
2022-07-26T01:16:16.171Z,99919.09
2022-07-26T01:21:32.528Z,99918.50
2022-07-26T01:26:52.088Z,99918.06
2022-07-26T01:31:57.448Z,99928.53
2022-07-26T01:37:13.603Z,99930.59
2022-07-26T01:42:36.339Z,99933.47
2022-07-26T01:47:51.159Z,99934.06
2022-07-26T01:53:16.455Z,99921.13
2022-07-26T01:58:31.877Z,99917.88
2022-07-26T02:03:49.460Z,99913.78
2022-07-26T02:09:09.764Z,99900.28
2022-07-26T02:14:28.173Z,99892.16
2022-07-26T02:19:35.462Z,99893.00
2022-07-26T02:25:02.958Z,99895.69
2022-07-26T02:30:28.112Z,99901.91
2022-07-26T02:35:46.053Z,99895.56
2022-07-26T02:41:01.834Z,99899.91
2022-07-26T02:46:17.865Z,99898.34
2022-07-26T02:51:40.931Z,99906.34
2022-07-26T02:56:50.474Z,99906.94
2022-07-26T03:02:06.194Z,99914.56
2022-07-26T03:07:12.740Z,99918.28
2022-07-26T03:12:29.177Z,99932.66
2022-07-26T03:17:52.542Z,99931.03
2022-07-26T03:23:04.467Z,99927.59
2022-07-26T03:28:09.972Z,99935.81
2022-07-26T03:33:21.384Z,99935.81
2022-07-26T03:38:50.329Z,99934.78
2022-07-26T03:44:06.047Z,99924.16
2022-07-26T03:49:26.992Z,99927.63
2022-07-26T03:54:47.632Z,99926.59
2022-07-26T04:00:12.145Z,99919.47
2022-07-26T04:05:26.165Z,99931.31
2022-07-26T04:10:47.178Z,99927.03
2022-07-26T04:16:18.107Z,99930.50
2022-07-26T04:21:47.266Z,99929.88
2022-07-26T04:26:55.818Z,99940.53
2022-07-26T04:32:10.167Z,99950.13
2022-07-26T04:37:26.852Z,99957.94
2022-07-26T04:42:32.468Z,99964.47
2022-07-26T04:47:42.995Z,99957.50
2022-07-26T04:52:57.678Z,99961.81
2022-07-26T04:58:01.655Z,99965.91
2022-07-26T05:03:10.237Z,99967.34
2022-07-26T05:08:18.037Z,99965.09
2022-07-26T05:13:29.576Z,99970.38
2022-07-26T05:18:49.058Z,99971.13
2022-07-26T05:23:58.560Z,99977.66
2022-07-26T05:29:06.547Z,99981.94
2022-07-26T05:34:23.309Z,99984.41
2022-07-26T05:39:41.534Z,99990.63
2022-07-26T05:44:49.320Z,99996.44
2022-07-26T05:50:04.583Z,100003.19
2022-07-26T05:55:26.093Z,100004.94
2022-07-26T06:00:32.885Z,99993.72
2022-07-26T06:05:59.188Z,100009.81
2022-07-26T06:11:14.355Z,100007.81
2022-07-26T06:16:25.120Z,100016.72
2022-07-26T06:21:33.961Z,100020.72
2022-07-26T06:26:43.954Z,100021.19
2022-07-26T06:32:05.847Z,100027.66
2022-07-26T06:37:10.413Z,100025.06
2022-07-26T06:42:34.544Z,100014.41
2022-07-26T06:48:02.994Z,100032.88
2022-07-26T06:53:18.407Z,100015.91
2022-07-26T06:58:30.025Z,100020.59
2022-07-26T07:09:03.700Z,100039.16
2022-07-26T07:14:25.795Z,100031.69
2022-07-26T07:19:53.391Z,100031.75
2022-07-26T07:25:03.023Z,100029.66
2022-07-26T07:30:18.039Z,100032.16
2022-07-26T07:35:32.049Z,100029.88
2022-07-26T07:40:43.401Z,100018.97
2022-07-26T07:45:56.589Z,100028.25
2022-07-26T07:51:12.701Z,100027.13
2022-07-26T07:56:33.613Z,100009.78
2022-07-26T08:02:08.837Z,100017.53
2022-07-26T08:07:32.827Z,100012.63
2022-07-26T08:12:51.362Z,100022.13
2022-07-26T08:18:04.543Z,100020.97
2022-07-26T08:23:16.079Z,100011.16
2022-07-26T08:28:46.366Z,100017.56
2022-07-26T08:34:00.498Z,100022.19
2022-07-26T08:39:05.398Z,100026.25
2022-07-26T08:44:12.910Z,100032.28
2022-07-26T08:49:21.616Z,100034.72
2022-07-26T08:54:28.644Z,100044.00
2022-07-26T08:59:37.942Z,100047.13
2022-07-26T09:05:07.880Z,100038.06
2022-07-26T09:10:27.284Z,100046.66
2022-07-26T09:15:44.638Z,100044.84
2022-07-26T09:21:01.242Z,100040.13
2022-07-26T09:26:10.820Z,100057.53
2022-07-26T09:31:38.860Z,100052.41
2022-07-26T09:37:26.897Z,100053.31
2022-07-26T09:42:34.013Z,100055.91
2022-07-26T09:47:50.354Z,100051.28
2022-07-26T09:53:22.772Z,100047.19
2022-07-26T09:58:46.878Z,100045.91
2022-07-26T10:04:05.696Z,100061.06
2022-07-26T10:09:13.955Z,100055.09
2022-07-26T10:14:54.529Z,100053.22
2022-07-26T10:20:25.178Z,100056.34
2022-07-26T10:25:50.946Z,100049.84
2022-07-26T10:31:12.368Z,100041.53
2022-07-26T10:36:48.399Z,100036.44
2022-07-26T10:42:09.450Z,100056.53
2022-07-26T10:47:19.217Z,100037.66
2022-07-26T10:52:29.799Z,100054.38
2022-07-26T10:57:37.930Z,100063.50
2022-07-26T11:02:47.647Z,100062.84
2022-07-26T11:08:06.544Z,100063.09
2022-07-26T11:13:16.906Z,100066.44
2022-07-26T11:18:28.121Z,100081.94
2022-07-26T11:23:37.576Z,100076.00
2022-07-26T11:29:00.247Z,100076.16
2022-07-26T11:34:05.108Z,100071.56
2022-07-26T11:39:15.388Z,100073.50
2022-07-26T11:44:24.620Z,100057.59
2022-07-26T11:50:00.770Z,100060.66
2022-07-26T11:55:18.349Z,100062.50
2022-07-26T12:00:25.227Z,100061.50
2022-07-26T12:05:39.201Z,100068.97
2022-07-26T12:10:48.139Z,100060.22
2022-07-26T12:16:00.454Z,100059.06
2022-07-26T12:21:14.639Z,100066.75
2022-07-26T12:26:32.380Z,100066.78
2022-07-26T12:31:37.499Z,100065.97
2022-07-26T12:36:50.869Z,100070.28
2022-07-26T12:42:04.988Z,100064.34
2022-07-26T12:47:11.425Z,100067.13
2022-07-26T12:52:23.854Z,100070.13
2022-07-26T12:57:32.094Z,100078.88
2022-07-26T13:02:46.567Z,100072.59
2022-07-26T13:08:01.034Z,100081.50
2022-07-26T13:13:17.158Z,100081.34
2022-07-26T13:18:46.611Z,100078.03
2022-07-26T13:23:59.362Z,100084.06
2022-07-26T13:29:12.777Z,100091.34
2022-07-26T13:34:35.257Z,100110.91
2022-07-26T13:39:56.335Z,100117.28
2022-07-26T13:45:08.877Z,100119.69
2022-07-26T13:50:26.197Z,100119.44
2022-07-26T13:55:36.805Z,100138.34
2022-07-26T14:00:53.894Z,100156.50
2022-07-26T14:06:15.689Z,100159.94
2022-07-26T14:11:41.000Z,100161.78
2022-07-26T14:17:23.056Z,100168.09
2022-07-26T14:22:32.792Z,100170.03
2022-07-26T14:27:44.116Z,100169.66
2022-07-26T14:33:06.697Z,100171.31
2022-07-26T14:38:24.336Z,100171.31
2022-07-26T14:43:37.325Z,100173.69
2022-07-26T14:48:54.873Z,100171.16
2022-07-26T14:54:02.306Z,100168.25
2022-07-26T14:59:18.546Z,100169.78
2022-07-26T15:04:25.873Z,100162.41
2022-07-26T15:09:31.472Z,100173.69
2022-07-26T15:14:35.435Z,100167.53
2022-07-26T15:19:47.140Z,100172.22
2022-07-26T15:24:53.907Z,100169.53
2022-07-26T15:30:04.296Z,100171.38
2022-07-26T15:35:14.945Z,100179.34
2022-07-26T15:40:21.152Z,100179.78
2022-07-26T15:45:28.085Z,100171.25
2022-07-26T15:50:39.419Z,100170.34
2022-07-26T15:55:47.462Z,100162.56
2022-07-26T16:00:58.024Z,100170.00
2022-07-26T16:06:08.749Z,100164.94
2022-07-26T16:11:30.242Z,100169.06
2022-07-26T16:16:45.785Z,100155.59
2022-07-26T16:21:57.869Z,100153.97
2022-07-26T16:27:10.947Z,100163.47
2022-07-26T16:32:22.538Z,100152.63
2022-07-26T16:37:35.123Z,100156.06
2022-07-26T16:42:46.045Z,100152.72
2022-07-26T16:48:00.022Z,100159.50
2022-07-26T16:53:10.337Z,100168.69
2022-07-26T16:58:20.723Z,100179.44
2022-07-26T17:03:33.262Z,100169.13
2022-07-26T17:08:43.714Z,100178.00
2022-07-26T17:13:53.023Z,100183.78
2022-07-26T17:19:00.950Z,100184.63
2022-07-26T17:24:31.299Z,100187.47
2022-07-26T17:29:39.022Z,100190.78
2022-07-26T17:34:48.571Z,100191.09
2022-07-26T17:39:58.497Z,100200.19
2022-07-26T17:45:16.589Z,100201.03
2022-07-26T17:50:36.510Z,100206.19
2022-07-26T17:55:52.027Z,100207.41
2022-07-26T18:01:05.989Z,100207.66
2022-07-26T18:06:17.890Z,100215.91
2022-07-26T18:11:28.260Z,100214.97
2022-07-26T18:16:41.942Z,100218.88
2022-07-26T18:21:51.064Z,100218.91
2022-07-26T18:26:57.953Z,100216.50
2022-07-26T18:32:07.957Z,100212.84
2022-07-26T18:37:14.243Z,100216.53
2022-07-26T18:42:27.925Z,100221.91
2022-07-26T18:47:39.996Z,100211.69
2022-07-26T18:52:49.213Z,100217.69
2022-07-26T18:58:06.510Z,100225.97
2022-07-26T19:03:12.685Z,100225.56
2022-07-26T19:19:39.577Z,100251.66
2022-07-26T19:24:47.355Z,100255.78
2022-07-26T19:30:11.440Z,100250.09
2022-07-26T19:35:34.922Z,100259.13
2022-07-26T19:41:00.410Z,100265.47
2022-07-26T19:46:17.814Z,100271.59
2022-07-26T19:51:31.245Z,100261.59
2022-07-26T19:56:43.296Z,100272.84
2022-07-26T20:07:26.296Z,100289.84
2022-07-26T20:12:33.846Z,100293.75
2022-07-26T20:17:45.354Z,100298.88
2022-07-26T20:23:05.387Z,100288.16
2022-07-26T20:28:16.909Z,100298.19
2022-07-26T20:33:26.064Z,100304.16
2022-07-26T20:38:32.797Z,100307.19
2022-07-26T20:43:41.959Z,100315.41
2022-07-26T20:48:56.665Z,100312.31
2022-07-26T20:54:03.923Z,100319.88
2022-07-26T20:59:16.823Z,100319.84
2022-07-26T21:04:26.400Z,100326.41
2022-07-26T21:09:34.322Z,100322.50
2022-07-26T21:14:44.085Z,100321.06
2022-07-26T21:19:53.013Z,100325.94
2022-07-26T21:25:05.429Z,100334.16
2022-07-26T21:30:17.588Z,100346.00
2022-07-26T21:35:33.668Z,100335.19
2022-07-26T21:40:38.380Z,100342.50
2022-07-26T21:45:43.390Z,100347.63
2022-07-26T21:50:54.083Z,100350.50
2022-07-26T21:56:13.032Z,100358.66
2022-07-26T22:01:26.694Z,100353.13
2022-07-26T22:06:32.813Z,100366.00
2022-07-26T22:11:38.950Z,100361.25
2022-07-26T22:16:44.736Z,100358.81
2022-07-26T22:21:52.256Z,100371.66
2022-07-26T22:27:04.460Z,100380.84
2022-07-26T22:32:12.492Z,100367.13
2022-07-26T22:37:20.378Z,100377.31
2022-07-26T22:42:26.025Z,100380.78
2022-07-26T22:47:31.208Z,100383.00
2022-07-26T22:52:43.144Z,100378.88
2022-07-26T22:57:47.988Z,100377.44
2022-07-26T23:02:52.407Z,100380.47
2022-07-26T23:08:03.994Z,100376.16
2022-07-26T23:13:13.332Z,100374.91
2022-07-26T23:18:18.905Z,100377.13
2022-07-26T23:23:35.414Z,100373.59
2022-07-26T23:29:06.204Z,100378.47
2022-07-26T23:34:14.263Z,100375.75
2022-07-26T23:39:23.690Z,100380.44
2022-07-26T23:44:29.059Z,100377.94
2022-07-26T23:49:43.315Z,100383.00
2022-07-26T23:55:00.042Z,100372.13
